Time;durP1;ratioP1;P1;durP2;ratioP2;P2;SDS_P1;SDS_P2;PMS_P1;PMS_P2;Temp;Humidity;BMP_temperature;BMP_pressure;BME280_temperature;BME280_humidity;BME280_pressure;Samples;Min_cycle;Max_cycle;Signal;HPM_P1;HPM_P2
2021/08/24 00:01:21;;;;;;;4.50;4.10;;;14.90;99.90;;;;;;5032996;28;20460;-67
2021/08/24 00:03:48;;;;;;;6.20;5.13;;;15.00;99.90;;;;;;5033144;28;20463;-68
2021/08/24 00:06:15;;;;;;;4.93;4.53;;;15.00;99.90;;;;;;5032711;28;20483;-67
2021/08/24 00:08:42;;;;;;;4.80;4.30;;;15.00;99.90;;;;;;5032795;28;20468;-68
2021/08/24 00:11:11;;;;;;;5.37;4.87;;;15.00;99.90;;;;;;5032730;28;20484;-68
2021/08/24 00:13:40;;;;;;;6.70;5.40;;;15.00;99.90;;;;;;5033140;28;20467;-67
2021/08/24 00:16:07;;;;;;;4.80;4.40;;;15.00;99.90;;;;;;5032584;28;20495;-67
2021/08/24 00:18:34;;;;;;;4.33;3.93;;;15.00;99.90;;;;;;5032606;28;20461;-67
2021/08/24 00:21:01;;;;;;;5.30;4.53;;;14.90;99.90;;;;;;5032372;28;20464;-68
2021/08/24 00:23:29;;;;;;;5.37;4.50;;;14.90;99.90;;;;;;5032952;28;20464;-68
2021/08/24 00:25:58;;;;;;;5.07;4.67;;;15.00;99.90;;;;;;5032577;28;20467;-67
2021/08/24 00:28:25;;;;;;;4.90;4.40;;;14.90;99.90;;;;;;5032173;28;20829;-68
2021/08/24 00:30:53;;;;;;;7.73;4.57;;;15.00;99.90;;;;;;5033032;28;20487;-67
2021/08/24 00:33:21;;;;;;;4.93;4.00;;;14.90;99.90;;;;;;5032515;28;20836;-67
2021/08/24 00:35:48;;;;;;;5.60;5.10;;;15.00;99.90;;;;;;5032562;28;20469;-67
2021/08/24 00:38:19;;;;;;;5.07;4.30;;;14.90;99.90;;;;;;5031842;28;20464;-67
2021/08/24 00:40:51;;;;;;;4.67;4.23;;;14.90;99.90;;;;;;5032565;28;20464;-67
2021/08/24 00:43:19;;;;;;;5.83;4.30;;;14.90;99.90;;;;;;5032125;28;20456;-67
2021/08/24 00:45:50;;;;;;;4.40;4.00;;;14.90;99.90;;;;;;5031993;28;20986;-67
2021/08/24 00:48:19;;;;;;;4.97;4.47;;;14.90;99.90;;;;;;5031856;28;20460;-67
2021/08/24 00:50:49;;;;;;;4.57;4.00;;;14.90;99.90;;;;;;5032285;28;20879;-67
2021/08/24 00:53:19;;;;;;;6.00;4.77;;;14.90;99.90;;;;;;5031962;28;20499;-67
2021/08/24 00:55:48;;;;;;;4.80;4.30;;;14.90;99.90;;;;;;5032364;28;20461;-67
2021/08/24 00:58:17;;;;;;;5.90;3.73;;;14.90;99.90;;;;;;5031921;28;20794;-67
2021/08/24 01:00:46;;;;;;;8.40;4.67;;;14.90;99.90;;;;;;5032327;28;20498;-67
2021/08/24 01:03:17;;;;;;;5.40;4.90;;;14.90;99.90;;;;;;5031662;28;20882;-67
2021/08/24 01:05:46;;;;;;;5.13;4.63;;;14.90;99.90;;;;;;5031990;28;20483;-67
2021/08/24 01:08:19;;;;;;;6.53;4.40;;;14.90;99.90;;;;;;5031148;28;20468;-67
2021/08/24 01:10:56;;;;;;;5.03;4.30;;;14.90;99.90;;;;;;5032004;28;20464;-68
2021/08/24 01:13:31;;;;;;;4.93;4.43;;;14.90;99.90;;;;;;5031581;28;20460;-67
2021/08/24 01:16:08;;;;;;;6.43;5.13;;;14.80;99.90;;;;;;5031646;28;20464;-68
2021/08/24 01:18:45;;;;;;;5.67;5.17;;;14.80;99.90;;;;;;5031308;28;20463;-67
2021/08/24 01:21:38;;;;;;;6.53;4.80;;;14.80;99.90;;;;;;5031466;28;20468;-67
2021/08/24 01:24:12;;;;;;;5.30;4.90;;;14.80;99.90;;;;;;5031474;28;20464;-67
2021/08/24 01:26:44;;;;;;;5.97;5.47;;;14.90;99.90;;;;;;5031675;28;20892;-67
2021/08/24 01:29:31;;;;;;;5.50;5.00;;;14.80;99.90;;;;;;5030821;28;20858;-67
2021/08/24 01:32:16;;;;;;;6.10;5.50;;;14.80;99.90;;;;;;5031460;28;20515;-67
2021/08/24 01:35:07;;;;;;;6.57;5.93;;;14.80;99.90;;;;;;5031367;28;20468;-67
2021/08/24 01:37:44;;;;;;;5.80;5.30;;;14.80;99.90;;;;;;5030988;28;20512;-67
2021/08/24 01:40:14;;;;;;;6.23;5.43;;;14.80;99.90;;;;;;5031209;28;20896;-67
2021/08/24 01:42:42;;;;;;;7.00;5.37;;;14.80;99.90;;;;;;5031499;28;20448;-67
2021/08/24 01:45:15;;;;;;;6.60;5.43;;;14.80;99.90;;;;;;5031050;28;20456;-67
2021/08/24 01:47:51;;;;;;;5.63;5.13;;;14.70;99.90;;;;;;5030830;28;20480;-67
2021/08/24 01:50:22;;;;;;;5.40;4.90;;;14.80;99.90;;;;;;5030897;28;20502;-67
2021/08/24 01:52:54;;;;;;;5.40;4.90;;;14.70;99.90;;;;;;5031172;28;21018;-68
2021/08/24 01:55:24;;;;;;;8.87;5.23;;;14.70;99.90;;;;;;5030606;28;20472;-68
2021/08/24 01:57:56;;;;;;;5.67;5.10;;;14.60;99.90;;;;;;5030554;28;20488;-67
2021/08/24 02:00:23;;;;;;;7.67;4.80;;;14.60;99.90;;;;;;5030835;28;20460;-67
2021/08/24 02:02:54;;;;;;;4.80;4.33;;;14.60;99.90;;;;;;5031066;28;20463;-67
2021/08/24 02:05:25;;;;;;;5.47;4.97;;;14.60;99.90;;;;;;5030816;28;21158;-67
2021/08/24 02:07:57;;;;;;;5.80;5.20;;;14.60;99.90;;;;;;5030174;28;20484;-67
2021/08/24 02:10:25;;;;;;;4.80;4.40;;;14.50;99.90;;;;;;5030951;28;20467;-68
2021/08/24 02:12:54;;;;;;;6.37;5.03;;;14.50;99.90;;;;;;5030651;28;20483;-68
2021/08/24 02:15:26;;;;;;;5.17;4.67;;;14.50;99.90;;;;;;5030707;28;20464;-67
2021/08/24 02:17:53;;;;;;;7.53;4.90;;;14.50;99.90;;;;;;5030094;28;20489;-68
2021/08/24 02:20:25;;;;;;;5.57;4.80;;;14.50;99.90;;;;;;5030491;28;20496;-68
2021/08/24 02:22:58;;;;;;;5.30;4.80;;;14.40;99.90;;;;;;5030639;28;20464;-67
2021/08/24 02:25:29;;;;;;;5.13;4.37;;;14.40;99.90;;;;;;5030812;28;20468;-67
2021/08/24 02:28:01;;;;;;;8.00;4.90;;;14.40;99.90;;;;;;5029949;28;21012;-67
2021/08/24 02:30:29;;;;;;;4.73;4.30;;;14.30;99.90;;;;;;5030833;28;20467;-67
2021/08/24 02:32:57;;;;;;;6.70;4.60;;;14.30;99.90;;;;;;5030321;28;20480;-68
2021/08/24 02:35:29;;;;;;;5.13;4.07;;;14.30;99.90;;;;;;5030508;28;20467;-67
2021/08/24 02:38:02;;;;;;;5.80;5.20;;;14.30;99.90;;;;;;5029968;28;20507;-67
2021/08/24 02:40:37;;;;;;;4.57;4.17;;;14.30;99.90;;;;;;5030625;28;20472;-67
2021/08/24 02:43:22;;;;;;;5.63;4.60;;;14.30;99.90;;;;;;5030191;28;20452;-67
2021/08/24 02:45:54;;;;;;;5.30;4.80;;;14.20;99.90;;;;;;5030634;28;20504;-67
2021/08/24 02:48:22;;;;;;;9.40;4.90;;;14.20;99.90;;;;;;5029797;28;20851;-67
2021/08/24 02:50:50;;;;;;;4.97;4.30;;;14.20;99.90;;;;;;5030522;28;20472;-67
2021/08/24 02:53:18;;;;;;;5.07;4.67;;;14.20;99.90;;;;;;5030004;28;20495;-67
2021/08/24 02:55:44;;;;;;;6.10;4.63;;;14.20;99.90;;;;;;5030418;28;20500;-67
2021/08/24 02:58:11;;;;;;;6.60;4.60;;;14.10;99.90;;;;;;5029858;28;20460;-67
2021/08/24 03:00:38;;;;;;;5.10;4.60;;;14.00;99.90;;;;;;5030370;28;20827;-67
2021/08/24 03:03:04;;;;;;;6.33;4.70;;;14.00;99.90;;;;;;5030158;28;20456;-67
2021/08/24 03:05:31;;;;;;;6.37;4.10;;;14.00;99.90;;;;;;5030277;28;20539;-68
2021/08/24 03:07:58;;;;;;;7.13;4.30;;;13.90;99.90;;;;;;5031541;28;20863;-67
2021/08/24 03:10:29;;;;;;;5.83;3.60;;;13.80;99.90;;;;;;5033929;28;20464;-67
2021/08/24 03:13:11;;;;;;;5.87;4.10;;;13.80;99.90;;;;;;5034021;28;20484;-67
2021/08/24 03:15:42;;;;;;;4.53;4.13;;;13.80;99.90;;;;;;5034052;28;20563;-67
2021/08/24 03:18:14;;;;;;;11.00;5.47;;;13.80;99.90;;;;;;5033373;28;20498;-67
2021/08/24 03:20:44;;;;;;;7.63;4.63;;;13.70;99.90;;;;;;5033832;28;20475;-67
2021/08/24 03:23:14;;;;;;;6.63;4.50;;;13.60;99.90;;;;;;5033750;28;20463;-67
2021/08/24 03:25:44;;;;;;;7.40;4.27;;;13.60;99.90;;;;;;5033879;28;20843;-67
2021/08/24 03:28:14;;;;;;;4.33;3.93;;;13.50;99.90;;;;;;5033237;28;21039;-67
2021/08/24 03:30:41;;;;;;;4.13;3.73;;;13.40;99.90;;;;;;5033757;28;20491;-67
2021/08/24 03:33:08;;;;;;;4.20;3.80;;;13.40;99.90;;;;;;5019466;28;20490;-67
2021/08/24 03:35:34;;;;;;;6.03;4.33;;;13.40;99.90;;;;;;4994119;28;20965;-67
2021/08/24 03:38:01;;;;;;;5.67;4.30;;;13.30;99.90;;;;;;4993534;28;20486;-67
2021/08/24 03:40:28;;;;;;;4.97;4.50;;;13.30;99.90;;;;;;4994604;28;20946;-67
2021/08/24 03:42:57;;;;;;;7.17;4.03;;;13.30;99.90;;;;;;4994367;28;20462;-67
2021/08/24 03:45:24;;;;;;;5.97;3.90;;;13.20;99.90;;;;;;4994640;28;20469;-67
2021/08/24 03:47:50;;;;;;;5.43;4.00;;;13.20;99.90;;;;;;4993733;28;20485;-67
2021/08/24 03:50:20;;;;;;;7.00;4.20;;;13.20;99.90;;;;;;4994104;28;20466;-67
2021/08/24 03:52:47;;;;;;;4.57;3.50;;;13.10;99.90;;;;;;4994039;28;20467;-67
2021/08/24 03:55:14;;;;;;;4.47;4.00;;;13.00;99.90;;;;;;4993761;28;20203;-67
2021/08/24 03:57:41;;;;;;;4.90;3.73;;;13.00;99.90;;;;;;4993139;28;20485;-67
2021/08/24 04:00:11;;;;;;;4.00;3.47;;;12.90;99.90;;;;;;4993219;28;20470;-67
2021/08/24 04:02:38;;;;;;;4.05;3.70;;;12.90;99.90;;;;;;4993611;28;20857;-67
2021/08/24 04:05:06;;;;;;;4.10;3.40;;;12.90;99.90;;;;;;4993547;28;20206;-67
2021/08/24 04:07:33;;;;;;;3.53;3.23;;;12.80;99.90;;;;;;5010373;28;20479;-67
2021/08/24 04:10:00;;;;;;;5.40;4.37;;;12.90;99.90;;;;;;5013232;28;20465;-67
2021/08/24 04:12:26;;;;;;;7.40;3.90;;;12.80;99.90;;;;;;5013376;28;20891;-67
2021/08/24 04:14:53;;;;;;;5.30;4.40;;;12.80;99.90;;;;;;5013201;28;20468;-67
2021/08/24 04:17:21;;;;;;;4.33;3.67;;;12.70;99.90;;;;;;5012418;28;20485;-67
2021/08/24 04:19:48;;;;;;;4.70;4.20;;;12.70;99.90;;;;;;5011953;28;20465;-66
2021/08/24 04:22:20;;;;;;;4.67;4.17;;;12.60;99.90;;;;;;4998370;28;20457;-67
2021/08/24 04:24:47;;;;;;;5.53;4.30;;;12.60;99.90;;;;;;5104776;22;20598;-71
2021/08/24 04:27:14;;;;;;;4.65;3.90;;;12.50;99.90;;;;;;5040419;28;20485;-72
2021/08/24 04:29:41;;;;;;;8.87;4.40;;;12.40;99.90;;;;;;5043937;28;20193;-71
2021/08/24 04:32:08;;;;;;;7.55;4.97;;;12.40;99.90;;;;;;5045929;28;20482;-71
2021/08/24 04:34:36;;;;;;;6.70;3.95;;;12.40;99.90;;;;;;5046870;28;20217;-71
2021/08/24 04:37:03;;;;;;;5.90;3.77;;;12.40;99.90;;;;;;5032624;28;20221;-72
2021/08/24 04:39:51;;;;;;;5.65;3.92;;;12.40;99.90;;;;;;5030430;28;20464;-69
2021/08/24 04:42:18;;;;;;;4.60;4.00;;;12.30;99.90;;;;;;5032587;28;20201;-69
2021/08/24 04:44:44;;;;;;;4.40;4.00;;;12.30;99.90;;;;;;5032390;28;20473;-70
2021/08/24 04:47:11;;;;;;;4.13;3.83;;;12.30;99.90;;;;;;5032003;28;20484;-70
2021/08/24 04:49:39;;;;;;;4.93;4.10;;;12.30;99.90;;;;;;5032259;28;20586;-69
2021/08/24 04:52:07;;;;;;;4.78;4.07;;;12.30;99.90;;;;;;5032039;28;21037;-69
2021/08/24 04:54:34;;;;;;;4.72;4.07;;;12.20;99.90;;;;;;5032447;28;20570;-70
2021/08/24 04:57:01;;;;;;;6.97;4.50;;;12.20;99.90;;;;;;5032328;28;20226;-70
2021/08/24 04:59:28;;;;;;;4.35;3.95;;;12.10;99.90;;;;;;5032047;28;20841;-70
2021/08/24 05:01:55;;;;;;;5.40;4.80;;;12.10;99.90;;;;;;5032058;28;20213;-70
2021/08/24 05:04:22;;;;;;;4.60;4.20;;;12.10;99.90;;;;;;5032203;28;20202;-70
2021/08/24 05:06:51;;;;;;;8.85;4.53;;;12.10;99.90;;;;;;5032103;28;20589;-70
2021/08/24 05:09:18;;;;;;;6.00;4.88;;;12.10;99.90;;;;;;5031517;28;20297;-70
2021/08/24 05:11:44;;;;;;;7.20;5.28;;;12.10;99.90;;;;;;5032003;28;20209;-70
2021/08/24 05:14:11;;;;;;;5.10;4.57;;;12.10;99.90;;;;;;5031716;28;20231;-70
2021/08/24 05:16:38;;;;;;;5.32;4.35;;;12.10;99.90;;;;;;5031653;28;20712;-70
2021/08/24 05:19:05;;;;;;;4.57;3.90;;;12.20;99.90;;;;;;5031275;28;20240;-70
2021/08/24 05:21:33;;;;;;;5.40;4.07;;;12.20;99.90;;;;;;5031696;28;20460;-70
2021/08/24 05:24:02;;;;;;;4.45;4.05;;;12.30;99.90;;;;;;5031498;28;20212;-70
2021/08/24 05:26:29;;;;;;;4.70;4.30;;;12.30;99.90;;;;;;5031564;28;20222;-70
2021/08/24 05:28:56;;;;;;;5.10;4.60;;;12.30;99.90;;;;;;5031119;28;20715;-70
2021/08/24 05:31:22;;;;;;;5.17;4.27;;;12.40;99.90;;;;;;5031031;28;20623;-70
2021/08/24 05:33:49;;;;;;;5.32;4.70;;;12.40;99.90;;;;;;5031503;28;20495;-70
2021/08/24 05:36:16;;;;;;;6.90;4.53;;;12.40;99.90;;;;;;5031476;28;20226;-70
2021/08/24 05:38:42;;;;;;;4.40;4.00;;;12.40;99.90;;;;;;5031061;28;20460;-70
2021/08/24 05:41:10;;;;;;;5.03;4.13;;;12.40;99.90;;;;;;5031523;28;20472;-70
2021/08/24 05:43:37;;;;;;;9.10;4.50;;;12.50;99.90;;;;;;5031340;28;20460;-70
2021/08/24 05:46:07;;;;;;;5.53;5.03;;;12.50;99.90;;;;;;5031297;28;20495;-70
2021/08/24 05:48:34;;;;;;;4.33;3.93;;;12.60;99.90;;;;;;5030857;28;20460;-70
2021/08/24 05:51:01;;;;;;;5.10;4.60;;;12.60;99.90;;;;;;5031262;28;20467;-70
2021/08/24 05:53:28;;;;;;;6.18;4.85;;;12.70;99.90;;;;;;5031117;28;20484;-70
2021/08/24 05:55:55;;;;;;;5.10;4.67;;;12.70;99.90;;;;;;5031139;28;20217;-70
2021/08/24 05:58:23;;;;;;;5.07;4.57;;;12.80;99.90;;;;;;5030546;28;20464;-70
2021/08/24 06:00:49;;;;;;;5.17;4.67;;;12.80;99.90;;;;;;5031065;28;20816;-70
2021/08/24 06:03:20;;;;;;;5.10;4.50;;;12.90;99.90;;;;;;5031026;28;20475;-70
2021/08/24 06:05:47;;;;;;;5.17;4.67;;;13.00;99.90;;;;;;5031140;28;20448;-70
2021/08/24 06:08:13;;;;;;;12.43;5.87;;;13.00;99.90;;;;;;5030443;28;20947;-70
2021/08/24 06:10:41;;;;;;;10.57;6.00;;;13.10;99.90;;;;;;5031162;28;20833;-70
2021/08/24 06:13:09;;;;;;;8.13;6.20;;;13.10;99.90;;;;;;5030542;28;20534;-70
2021/08/24 06:15:37;;;;;;;6.03;5.47;;;13.20;99.90;;;;;;5031096;28;20461;-70
2021/08/24 06:18:04;;;;;;;9.40;5.20;;;13.20;99.90;;;;;;5030183;28;20225;-70
2021/08/24 06:20:31;;;;;;;6.27;5.57;;;13.30;99.90;;;;;;5030911;28;20487;-70
2021/08/24 06:22:58;;;;;;;7.20;5.80;;;13.30;99.90;;;;;;5030718;28;20463;-70
2021/08/24 06:25:25;;;;;;;11.90;5.53;;;13.30;99.90;;;;;;5030738;28;20464;-70
2021/08/24 06:27:52;;;;;;;6.23;5.63;;;13.40;99.90;;;;;;5030075;28;20487;-70
2021/08/24 06:30:20;;;;;;;5.60;5.10;;;13.40;99.90;;;;;;5030878;28;20830;-69
2021/08/24 06:32:52;;;;;;;5.90;5.30;;;13.50;99.90;;;;;;5030656;28;20490;-70
2021/08/24 06:35:21;;;;;;;6.87;6.17;;;13.50;99.90;;;;;;5030768;28;20460;-70
2021/08/24 06:37:49;;;;;;;7.43;6.03;;;13.50;99.90;;;;;;5030091;28;20479;-70
2021/08/24 06:40:17;;;;;;;9.00;5.80;;;13.50;99.90;;;;;;5030748;28;20870;-70
2021/08/24 06:42:46;;;;;;;5.77;5.23;;;13.50;99.90;;;;;;5032147;28;20462;-70
2021/08/24 06:45:17;;;;;;;6.47;5.43;;;13.50;99.90;;;;;;5034549;28;20463;-70
2021/08/24 06:47:44;;;;;;;6.67;5.97;;;13.50;99.90;;;;;;5034354;28;20538;-70
2021/08/24 06:50:12;;;;;;;10.00;6.50;;;13.50;99.90;;;;;;5034682;28;20487;-70
2021/08/24 06:52:39;;;;;;;6.97;6.27;;;13.50;99.90;;;;;;5034613;28;20487;-70
2021/08/24 06:55:08;;;;;;;6.70;6.07;;;13.50;99.90;;;;;;5034323;28;20464;-70
2021/08/24 06:57:35;;;;;;;6.63;5.03;;;13.60;99.90;;;;;;5033871;28;20501;-70
2021/08/24 07:00:02;;;;;;;5.70;5.13;;;13.60;99.90;;;;;;5034245;28;20490;-70
2021/08/24 07:02:29;;;;;;;7.20;6.07;;;13.70;99.90;;;;;;5034511;28;20814;-70
2021/08/24 07:04:56;;;;;;;9.57;6.70;;;13.70;99.90;;;;;;5034225;28;20464;-70
2021/08/24 07:07:24;;;;;;;6.73;6.00;;;13.70;99.90;;;;;;5033966;28;20487;-70
2021/08/24 07:09:51;;;;;;;6.00;5.33;;;13.70;99.90;;;;;;5034131;28;20464;-70
2021/08/24 07:12:18;;;;;;;6.27;5.67;;;13.80;99.90;;;;;;5034306;28;20831;-70
2021/08/24 07:14:45;;;;;;;5.40;4.60;;;13.80;99.90;;;;;;5034164;28;20488;-70
2021/08/24 07:17:11;;;;;;;8.93;4.90;;;13.80;99.90;;;;;;5033640;28;20484;-70
2021/08/24 07:19:38;;;;;;;6.17;4.37;;;13.90;99.90;;;;;;5034131;28;20530;-70
2021/08/24 07:22:05;;;;;;;7.80;5.50;;;13.90;99.90;;;;;;5033860;28;20951;-70
2021/08/24 07:24:33;;;;;;;5.37;4.93;;;13.90;99.90;;;;;;5034017;28;20468;-70
2021/08/24 07:27:00;;;;;;;6.20;5.10;;;13.90;99.90;;;;;;5033493;28;20487;-70
2021/08/24 07:29:27;;;;;;;6.60;5.43;;;14.00;99.90;;;;;;5033819;28;20467;-70
2021/08/24 07:31:54;;;;;;;6.00;5.10;;;14.00;99.90;;;;;;5033715;28;20459;-70
2021/08/24 07:34:21;;;;;;;6.17;4.93;;;14.00;99.90;;;;;;5033844;28;20483;-70
2021/08/24 07:36:47;;;;;;;6.50;4.70;;;14.10;99.90;;;;;;5033625;28;20483;-70
2021/08/24 07:39:14;;;;;;;5.30;4.80;;;14.10;99.90;;;;;;5033286;28;20460;-70
2021/08/24 07:41:42;;;;;;;5.67;4.33;;;14.10;99.90;;;;;;5033586;28;20798;-70
2021/08/24 07:44:09;;;;;;;7.10;5.20;;;14.10;99.90;;;;;;5033517;28;20464;-70
2021/08/24 07:46:36;;;;;;;6.97;4.77;;;14.10;99.90;;;;;;5033662;28;20502;-70
2021/08/24 07:49:03;;;;;;;4.57;4.17;;;14.10;99.90;;;;;;5033000;28;20471;-70
2021/08/24 07:51:30;;;;;;;4.70;4.30;;;14.10;99.90;;;;;;5033651;28;20464;-70
2021/08/24 07:53:59;;;;;;;5.60;4.03;;;14.10;99.90;;;;;;5032684;28;20491;-70
2021/08/24 07:56:27;;;;;;;5.30;4.30;;;14.20;99.90;;;;;;5033279;28;20487;-70
2021/08/24 07:58:55;;;;;;;5.90;4.87;;;14.20;99.90;;;;;;5032706;28;20555;-70
2021/08/24 08:01:21;;;;;;;4.83;4.37;;;14.20;99.90;;;;;;5033670;28;20467;-70
2021/08/24 08:03:48;;;;;;;6.13;3.90;;;14.20;99.90;;;;;;5033130;28;20456;-70
2021/08/24 08:06:15;;;;;;;8.57;5.27;;;14.20;99.90;;;;;;5033484;28;20506;-70
2021/08/24 08:08:41;;;;;;;4.97;4.47;;;14.30;99.90;;;;;;5032867;28;20471;-70
2021/08/24 08:11:08;;;;;;;4.43;4.03;;;14.40;99.90;;;;;;5032991;28;20468;-70
2021/08/24 08:13:35;;;;;;;5.43;4.80;;;14.40;99.90;;;;;;5033061;28;20491;-70
2021/08/24 08:16:03;;;;;;;7.63;4.80;;;14.40;99.90;;;;;;5033022;28;20512;-70
2021/08/24 08:18:29;;;;;;;5.93;4.40;;;14.40;99.90;;;;;;5032667;28;20460;-70
2021/08/24 08:20:56;;;;;;;5.10;3.90;;;14.40;99.90;;;;;;5032803;28;20464;-70
2021/08/24 08:23:23;;;;;;;4.73;3.93;;;14.40;99.90;;;;;;5032902;28;20478;-70
2021/08/24 08:25:50;;;;;;;6.00;4.30;;;14.40;99.90;;;;;;5032776;28;20464;-70
2021/08/24 08:28:17;;;;;;;5.40;4.00;;;14.30;99.90;;;;;;5032378;28;20464;-70
2021/08/24 08:30:45;;;;;;;4.70;4.27;;;14.40;99.90;;;;;;5032622;28;20469;-70
2021/08/24 08:33:14;;;;;;;6.40;4.53;;;14.40;99.90;;;;;;5032550;28;20496;-70
2021/08/24 08:35:41;;;;;;;5.40;4.90;;;14.40;99.90;;;;;;5032496;28;20471;-70
2021/08/24 08:38:08;;;;;;;4.80;4.30;;;14.50;99.90;;;;;;5032188;28;20464;-70
2021/08/24 08:40:46;;;;;;;4.40;4.00;;;14.50;99.90;;;;;;5032597;28;20456;-70
2021/08/24 08:43:22;;;;;;;7.80;4.80;;;14.70;99.90;;;;;;5032524;28;20465;-70
2021/08/24 08:45:50;;;;;;;4.80;4.17;;;14.80;99.90;;;;;;5032441;28;20456;-70
2021/08/24 08:48:40;;;;;;;4.33;3.90;;;14.90;99.90;;;;;;5031911;28;20952;-70
2021/08/24 08:51:18;;;;;;;4.67;3.57;;;15.00;99.90;;;;;;5032323;28;20465;-70
2021/08/24 08:53:53;;;;;;;4.20;3.47;;;15.00;99.90;;;;;;5032340;28;20480;-70
2021/08/24 08:56:29;;;;;;;4.57;3.67;;;15.00;99.90;;;;;;5032545;28;20483;-70
2021/08/24 08:59:01;;;;;;;5.30;4.10;;;15.00;99.90;;;;;;5031809;28;20467;-70
2021/08/24 09:01:33;;;;;;;4.57;4.17;;;15.00;99.90;;;;;;5032297;28;20488;-70
2021/08/24 09:04:13;;;;;;;4.33;3.43;;;15.00;99.90;;;;;;5032318;28;20468;-70
2021/08/24 09:06:40;;;;;;;6.63;4.40;;;15.00;99.90;;;;;;5031344;28;20484;-70
2021/08/24 09:09:08;;;;;;;5.57;4.30;;;15.00;99.90;;;;;;5031432;28;20468;-70
2021/08/24 09:11:40;;;;;;;4.70;4.10;;;15.00;99.90;;;;;;5031939;28;20460;-70
2021/08/24 09:14:13;;;;;;;4.63;3.93;;;15.00;99.90;;;;;;5031835;28;20511;-70
2021/08/24 09:16:49;;;;;;;6.60;3.73;;;15.00;99.90;;;;;;5031914;28;20480;-70
2021/08/24 09:19:23;;;;;;;4.67;3.90;;;15.00;99.90;;;;;;5031640;28;20862;-70
2021/08/24 09:21:51;;;;;;;5.23;4.20;;;15.00;99.90;;;;;;5031717;28;20459;-70
2021/08/24 09:24:29;;;;;;;4.77;4.10;;;14.90;99.90;;;;;;5031606;28;20890;-70
2021/08/24 09:27:02;;;;;;;4.43;3.90;;;14.90;99.90;;;;;;5031436;28;20472;-70
2021/08/24 09:29:33;;;;;;;6.27;4.73;;;14.90;99.90;;;;;;5031673;28;20468;-70
2021/08/24 09:32:02;;;;;;;5.80;4.33;;;14.90;99.90;;;;;;5031452;28;20499;-70
2021/08/24 09:34:36;;;;;;;4.73;4.33;;;14.90;99.90;;;;;;5031620;28;20480;-70
2021/08/24 09:37:03;;;;;;;4.87;4.10;;;15.00;99.90;;;;;;5031233;28;20484;-70
2021/08/24 09:39:54;;;;;;;5.53;4.60;;;14.90;99.90;;;;;;5031202;28;20986;-70
2021/08/24 09:42:30;;;;;;;6.17;4.00;;;14.90;99.90;;;;;;5031542;28;20460;-70
2021/08/24 09:45:00;;;;;;;6.67;4.60;;;14.90;99.90;;;;;;5031279;28;20464;-70
2021/08/24 09:47:28;;;;;;;4.50;4.10;;;15.00;99.90;;;;;;5031700;28;20906;-70
2021/08/24 09:50:03;;;;;;;4.77;4.37;;;15.00;99.90;;;;;;5031732;28;20491;-70
2021/08/24 09:52:33;;;;;;;4.97;4.47;;;15.00;99.90;;;;;;5031440;28;20954;-70
2021/08/24 09:55:04;;;;;;;4.40;4.00;;;15.00;99.90;;;;;;5031063;28;20484;-70
2021/08/24 09:57:34;;;;;;;7.43;4.90;;;15.10;99.90;;;;;;5030637;28;20539;-70
2021/08/24 10:00:04;;;;;;;5.50;4.10;;;15.10;99.90;;;;;;5031129;28;20460;-70
2021/08/24 10:02:39;;;;;;;5.30;4.47;;;15.20;99.90;;;;;;5031411;28;20806;-70
2021/08/24 10:05:11;;;;;;;7.10;4.60;;;15.20;99.90;;;;;;5031134;28;20463;-70
2021/08/24 10:07:41;;;;;;;4.20;3.77;;;15.20;99.90;;;;;;5030448;28;20484;-70
2021/08/24 10:10:20;;;;;;;6.97;3.80;;;15.30;99.90;;;;;;5030945;28;20460;-70
2021/08/24 10:12:51;;;;;;;5.17;4.70;;;15.30;99.90;;;;;;5030823;28;20494;-70
2021/08/24 10:15:30;;;;;;;4.73;4.03;;;15.40;99.90;;;;;;5031124;28;20494;-70
2021/08/24 10:17:59;;;;;;;4.93;4.00;;;15.40;99.90;;;;;;5030001;28;20553;-70
2021/08/24 10:20:32;;;;;;;3.93;3.57;;;15.50;99.90;;;;;;5031216;28;20468;-70
2021/08/24 10:23:00;;;;;;;4.67;3.70;;;15.60;99.90;;;;;;5031267;28;20519;-70
2021/08/24 10:25:31;;;;;;;5.30;4.00;;;15.60;99.90;;;;;;5069056;22;20496;-93
2021/08/24 10:28:01;;;;;;;6.33;4.00;;;15.60;99.90;;;;;;5030270;28;20458;-93
2021/08/24 10:30:41;;;;;;;5.20;4.70;;;15.60;99.90;;;;;;5031564;28;20459;-93
2021/08/24 10:33:18;;;;;;;4.50;4.10;;;15.70;99.90;;;;;;5031951;28;20457;-93
2021/08/24 10:35:53;;;;;;;4.57;4.17;;;15.70;99.90;;;;;;5049087;28;20494;-94
2021/08/24 10:38:41;;;;;;;3.80;3.50;;;15.80;99.90;;;;;;5047608;28;20452;-93
2021/08/24 10:41:34;;;;;;;3.93;3.63;;;15.80;99.90;;;;;;5056952;23;20517;-68
2021/08/24 10:44:05;;;;;;;4.90;4.30;;;15.80;99.90;;;;;;5038125;28;20463;-68
2021/08/24 10:46:32;;;;;;;5.10;4.70;;;15.80;99.90;;;;;;5050230;28;21013;-68
2021/08/24 10:48:58;;;;;;;5.37;4.53;;;15.70;99.90;;;;;;5050123;28;20814;-68
2021/08/24 10:51:40;;;;;;;5.10;4.53;;;15.70;99.90;;;;;;5050278;28;20466;-68
2021/08/24 10:54:21;;;;;;;3.90;3.60;;;15.60;99.90;;;;;;5050160;28;20483;-68
2021/08/24 10:56:53;;;;;;;3.63;3.30;;;15.60;99.90;;;;;;5050318;28;20487;-68
2021/08/24 10:59:47;;;;;;;4.60;4.20;;;15.60;99.90;;;;;;5049913;28;20463;-68
2021/08/24 11:02:24;;;;;;;4.67;4.10;;;15.60;99.90;;;;;;5050383;28;20459;-68
2021/08/24 11:05:05;;;;;;;4.93;4.43;;;15.60;99.90;;;;;;5050081;28;20451;-67
2021/08/24 11:07:52;;;;;;;4.43;4.03;;;15.60;99.90;;;;;;5049434;28;20486;-68
2021/08/24 11:10:30;;;;;;;3.90;3.60;;;15.70;99.90;;;;;;5050261;28;20966;-68
2021/08/24 11:13:09;;;;;;;6.23;4.40;;;15.70;99.90;;;;;;5050238;28;20470;-68
2021/08/24 11:15:44;;;;;;;6.20;4.20;;;15.70;99.90;;;;;;5050021;28;20514;-68
2021/08/24 11:18:23;;;;;;;4.40;4.00;;;15.70;99.90;;;;;;5049469;28;20987;-68
2021/08/24 11:20:58;;;;;;;4.43;4.00;;;15.80;99.90;;;;;;5049953;28;20463;-68
2021/08/24 11:23:38;;;;;;;4.27;3.80;;;15.70;99.90;;;;;;5050022;28;20462;-68
2021/08/24 11:26:10;;;;;;;4.40;4.00;;;15.70;99.90;;;;;;5049933;28;20483;-68
2021/08/24 11:28:49;;;;;;;5.87;4.23;;;15.70;99.90;;;;;;5050587;28;20459;-68
2021/08/24 11:31:24;;;;;;;8.63;4.17;;;15.80;99.90;;;;;;5053828;28;20841;-68
2021/08/24 11:33:58;;;;;;;4.93;3.77;;;15.80;99.90;;;;;;5053403;28;20463;-68
2021/08/24 11:36:31;;;;;;;4.60;4.10;;;15.80;99.90;;;;;;5053642;28;20870;-68
2021/08/24 11:39:04;;;;;;;4.20;3.80;;;15.90;99.90;;;;;;5052984;28;20471;-68
2021/08/24 11:41:31;;;;;;;4.30;3.90;;;15.90;99.90;;;;;;5053288;28;20471;-68
2021/08/24 11:44:03;;;;;;;4.37;3.97;;;16.00;99.90;;;;;;5053479;28;20871;-68
2021/08/24 11:46:34;;;;;;;4.27;3.43;;;16.10;99.90;;;;;;5053332;28;20482;-68
2021/08/24 11:49:08;;;;;;;4.90;3.70;;;16.10;99.90;;;;;;5052912;28;20467;-68
2021/08/24 11:51:37;;;;;;;3.73;3.43;;;16.10;99.90;;;;;;5053335;28;20494;-68
2021/08/24 11:54:12;;;;;;;3.97;3.60;;;16.20;99.90;;;;;;5053155;28;20474;-68
2021/08/24 11:56:46;;;;;;;5.50;3.50;;;16.20;99.90;;;;;;5053342;28;20884;-68
2021/08/24 11:59:17;;;;;;;3.93;3.47;;;16.20;99.90;;;;;;5052525;28;20832;-68
2021/08/24 12:01:47;;;;;;;4.83;3.70;;;16.30;99.90;;;;;;5053310;28;20464;-68
2021/08/24 12:04:19;;;;;;;4.20;3.80;;;16.30;99.90;;;;;;5052920;28;20466;-68
2021/08/24 12:06:50;;;;;;;4.20;3.80;;;16.30;99.90;;;;;;5053203;28;20491;-68
2021/08/24 12:09:38;;;;;;;4.77;3.90;;;16.40;99.90;;;;;;5052469;28;20460;-68
2021/08/24 12:12:06;;;;;;;4.53;4.13;;;16.50;99.90;;;;;;5052893;28;20463;-68
2021/08/24 12:14:36;;;;;;;4.37;3.70;;;16.50;99.90;;;;;;5052735;28;20553;-68
2021/08/24 12:17:05;;;;;;;4.60;4.20;;;16.60;99.90;;;;;;5052891;28;20537;-68
2021/08/24 12:19:35;;;;;;;4.80;4.40;;;16.60;99.90;;;;;;5052417;28;20462;-68
2021/08/24 12:22:07;;;;;;;4.43;4.03;;;16.70;99.90;;;;;;5052733;28;20838;-68
2021/08/24 12:24:58;;;;;;;5.50;4.10;;;16.70;99.90;;;;;;5052751;28;20463;-68
2021/08/24 12:27:58;;;;;;;5.70;3.90;;;16.90;99.90;;;;;;5051961;28;20483;-68
2021/08/24 12:30:30;;;;;;;4.27;3.87;;;16.90;99.90;;;;;;5052461;28;20877;-68
2021/08/24 12:33:32;;;;;;;4.20;3.80;;;17.00;99.90;;;;;;5052590;28;20499;-68
2021/08/24 12:36:00;;;;;;;4.87;4.47;;;17.10;99.90;;;;;;5052356;28;20482;-68
2021/08/24 12:38:46;;;;;;;4.37;3.90;;;17.10;99.90;;;;;;5052014;28;20476;-68
2021/08/24 12:41:44;;;;;;;4.60;4.20;;;17.20;99.90;;;;;;5052201;28;20907;-68
2021/08/24 12:44:25;;;;;;;4.90;4.40;;;17.10;99.90;;;;;;5052144;28;20525;-68
2021/08/24 12:46:53;;;;;;;4.10;3.73;;;17.00;99.90;;;;;;5052345;28;20479;-68
2021/08/24 12:49:41;;;;;;;4.40;4.00;;;17.00;99.90;;;;;;5051600;28;20466;-68
2021/08/24 12:52:33;;;;;;;4.03;3.73;;;16.90;99.90;;;;;;5052269;28;20525;-68
2021/08/24 12:55:37;;;;;;;4.20;3.50;;;16.80;99.90;;;;;;5052133;28;20483;-68
2021/08/24 12:58:11;;;;;;;6.90;4.70;;;16.80;99.90;;;;;;5048489;28;20474;-68
2021/08/24 13:00:40;;;;;;;4.47;4.07;;;16.80;99.90;;;;;;5052222;28;20462;-68
2021/08/24 13:03:24;;;;;;;4.03;3.73;;;16.70;99.90;;;;;;5051908;28;20462;-68
2021/08/24 13:06:16;;;;;;;5.53;4.40;;;16.70;99.90;;;;;;5051956;28;20517;-68